Bernice Lind — WDC8364 — position and weather

sailwx.info

Track history (hours):
 
Tides and Currents Weather Stations Pressure Air Temp Water Temp Dewpoint Dewpoint Depression Visibility Wind Speed Wind Dir Waves Ship Positions

Bernice Lind

Owner: Riverview Equipment Company, LLC, Petaluma, CA. More information available from US FCC via Universal Licensing System and Coast Guard Vessel Documentation Center.

Last reported at 2014-Oct-31 09:31 UTC. Time now 2014-Oct-31 10:52 UTC.
Position N 38°13' W 122°36'.

Length 18 m; draft 3.3 m.

Type: Towing. MMSI: 367085890.

Date/timePositionNaut miles runAvg speedWind from/ knotsBaromVisibWave heightAir tempDewpointWater temp
2014-Oct-31 09:31N 38°13' W 122°36'0 0.0
2014-Oct-31 08:33N 38°13' W 122°36'0 0.0
2014-Oct-31 07:33N 38°13' W 122°36'0 0.0
2014-Oct-31 06:33N 38°13' W 122°36'0 0.0
2014-Oct-31 05:25N 38°13' W 122°36'0 0.0
2014-Oct-31 04:33N 38°13' W 122°36'1 1.4
2014-Oct-31 03:31N 38°13' W 122°35'3 3.0
2014-Oct-31 02:32N 38°11' W 122°32'4 4.0
2014-Oct-31 01:33N 38°07' W 122°30'5 4.3
2014-Oct-31 00:29N 38°04' W 122°26'3 3.5
2014-Oct-30 23:31N 38°03' W 122°22'5 5.1
2014-Oct-30 22:30N 38°04' W 122°15'17 0.4
2014-Oct-28 23:12N 38°03' W 121°53'12 5.8
2014-Oct-28 21:11N 38°02' W 122°08'4 5.7
2014-Oct-28 20:27N 38°04' W 122°13'7 5.7
2014-Oct-28 19:10N 38°02' W 122°22'4 6.5
2014-Oct-28 18:33N 37°59' W 122°25'6 6.0
2014-Oct-28 17:33N 37°53' W 122°24'6 5.9
2014-Oct-28 16:33N 37°47' W 122°23'2 2.3
2014-Oct-28 15:33N 37°45' W 122°22'5 4.8
2014-Oct-28 14:33N 37°41' W 122°18'4 4.3
2014-Oct-28 13:33N 37°38' W 122°14'1 1.3
2014-Oct-28 12:33N 37°37' W 122°14'1 1.3
2014-Oct-28 11:33N 37°38' W 122°13'1 1.1
2014-Oct-28 10:33N 37°37' W 122°13'0 0.1
2014-Oct-28 09:33N 37°37' W 122°13'0 0.5
2014-Oct-28 08:33N 37°37' W 122°14'1 0.7
2014-Oct-28 07:33N 37°37' W 122°13'1 1.2
2014-Oct-28 06:33N 37°38' W 122°14'4 3.7
2014-Oct-28 05:33N 37°41' W 122°17'5 4.6
2014-Oct-28 04:33N 37°44' W 122°21'3 2.5
2014-Oct-28 03:34N 37°46' W 122°23'0 0.2
2014-Oct-28 02:33N 37°46' W 122°23'4 4.4
2014-Oct-28 01:33N 37°51' W 122°24'7 7.4
2014-Oct-28 00:33N 37°58' W 122°26'6 6.2
2014-Oct-27 23:33N 38°02' W 122°20'4 4.2
2014-Oct-27 22:32N 38°04' W 122°15'2 1.8
2014-Oct-27 21:33N 38°06' W 122°16'  
2014-Oct-23 18:23N 38°06' W 122°16'3 1.6
2014-Oct-23 16:14N 38°03' W 122°19'3 4.0
2014-Oct-23 15:28N 38°02' W 122°22'5 5.1
2014-Oct-23 14:33N 37°58' W 122°26'4 4.3
2014-Oct-23 13:33N 37°54' W 122°25'5 4.7
2014-Oct-23 12:33N 37°49' W 122°24'3 3.1
2014-Oct-23 11:33N 37°46' W 122°23'5 5.0
2014-Oct-23 10:33N 37°51' W 122°24'7 7.2
2014-Oct-23 09:33N 37°58' W 122°26'6 6.4
2014-Oct-23 08:33N 38°04' W 122°26'5 5.1
2014-Oct-23 07:33N 38°08' W 122°31'4 4.3
2014-Oct-23 06:33N 38°12' W 122°33'4 3.7
2014-Oct-23 05:33N 38°14' W 122°37'0 0.3
2014-Oct-23 04:33N 38°14' W 122°37'0 0.1
2014-Oct-23 03:33N 38°13' W 122°36'  
Track history (hours):
 
Tides and Currents Weather Stations Pressure Air Temp Water Temp Dewpoint Dewpoint Depression Visibility Wind Speed Wind Dir Waves Ship Positions

Bernice Lind

Owner: Riverview Equipment Company, LLC, Petaluma, CA. More information available from US FCC via Universal Licensing System and Coast Guard Vessel Documentation Center.

Last reported at 2014-Oct-31 09:31 UTC. Time now 2014-Oct-31 10:52 UTC.
Position N 38°13' W 122°36'.

Length 18 m; draft 3.3 m.

Type: Towing. MMSI: 367085890.

Date/timePositionNaut miles runAvg speedWind from/ knotsBaromVisibWave heightAir tempDewpointWater temp
2014-Oct-31 09:31N 38°13' W 122°36'0 0.0
2014-Oct-31 08:33N 38°13' W 122°36'0 0.0
2014-Oct-31 07:33N 38°13' W 122°36'0 0.0
2014-Oct-31 06:33N 38°13' W 122°36'0 0.0
2014-Oct-31 05:25N 38°13' W 122°36'0 0.0
2014-Oct-31 04:33N 38°13' W 122°36'1 1.4
2014-Oct-31 03:31N 38°13' W 122°35'3 3.0
2014-Oct-31 02:32N 38°11' W 122°32'4 4.0
2014-Oct-31 01:33N 38°07' W 122°30'5 4.3
2014-Oct-31 00:29N 38°04' W 122°26'3 3.5
2014-Oct-30 23:31N 38°03' W 122°22'5 5.1
2014-Oct-30 22:30N 38°04' W 122°15'17 0.4
2014-Oct-28 23:12N 38°03' W 121°53'12 5.8
2014-Oct-28 21:11N 38°02' W 122°08'4 5.7
2014-Oct-28 20:27N 38°04' W 122°13'7 5.7
2014-Oct-28 19:10N 38°02' W 122°22'4 6.5
2014-Oct-28 18:33N 37°59' W 122°25'6 6.0
2014-Oct-28 17:33N 37°53' W 122°24'6 5.9
2014-Oct-28 16:33N 37°47' W 122°23'2 2.3
2014-Oct-28 15:33N 37°45' W 122°22'5 4.8
2014-Oct-28 14:33N 37°41' W 122°18'4 4.3
2014-Oct-28 13:33N 37°38' W 122°14'1 1.3
2014-Oct-28 12:33N 37°37' W 122°14'1 1.3
2014-Oct-28 11:33N 37°38' W 122°13'1 1.1
2014-Oct-28 10:33N 37°37' W 122°13'0 0.1
2014-Oct-28 09:33N 37°37' W 122°13'0 0.5
2014-Oct-28 08:33N 37°37' W 122°14'1 0.7
2014-Oct-28 07:33N 37°37' W 122°13'1 1.2
2014-Oct-28 06:33N 37°38' W 122°14'4 3.7
2014-Oct-28 05:33N 37°41' W 122°17'5 4.6
2014-Oct-28 04:33N 37°44' W 122°21'3 2.5
2014-Oct-28 03:34N 37°46' W 122°23'0 0.2
2014-Oct-28 02:33N 37°46' W 122°23'4 4.4
2014-Oct-28 01:33N 37°51' W 122°24'7 7.4
2014-Oct-28 00:33N 37°58' W 122°26'6 6.2
2014-Oct-27 23:33N 38°02' W 122°20'4 4.2
2014-Oct-27 22:32N 38°04' W 122°15'2 1.8
2014-Oct-27 21:33N 38°06' W 122°16'  
2014-Oct-23 18:23N 38°06' W 122°16'3 1.6
2014-Oct-23 16:14N 38°03' W 122°19'3 4.0
2014-Oct-23 15:28N 38°02' W 122°22'5 5.1
2014-Oct-23 14:33N 37°58' W 122°26'4 4.3
2014-Oct-23 13:33N 37°54' W 122°25'5 4.7
2014-Oct-23 12:33N 37°49' W 122°24'3 3.1
2014-Oct-23 11:33N 37°46' W 122°23'5 5.0
2014-Oct-23 10:33N 37°51' W 122°24'7 7.2
2014-Oct-23 09:33N 37°58' W 122°26'6 6.4
2014-Oct-23 08:33N 38°04' W 122°26'5 5.1
2014-Oct-23 07:33N 38°08' W 122°31'4 4.3
2014-Oct-23 06:33N 38°12' W 122°33'4 3.7
2014-Oct-23 05:33N 38°14' W 122°37'0 0.3
2014-Oct-23 04:33N 38°14' W 122°37'0 0.1
2014-Oct-23 03:33N 38°13' W 122°36'  

Dump ship's entire track history